createdAt,value
2017-08-25T00:01:20.443Z,100093.17
2017-08-25T00:03:46.546Z,100093.02
2017-08-25T00:06:12.659Z,100100.09
2017-08-25T00:08:38.749Z,100107.02
2017-08-25T00:11:04.875Z,100103.63
2017-08-25T00:13:30.950Z,100098.25
2017-08-25T00:15:57.014Z,100101.16
2017-08-25T00:18:23.144Z,100101.62
2017-08-25T00:20:49.202Z,100104.23
2017-08-25T00:23:15.303Z,100104.89
2017-08-25T00:25:41.481Z,100105.70
2017-08-25T00:28:07.602Z,100102.68
2017-08-25T00:30:33.673Z,100104.03
2017-08-25T00:32:59.780Z,100105.77
2017-08-25T00:35:25.865Z,100110.59
2017-08-25T00:37:51.959Z,100107.30
2017-08-25T00:40:18.115Z,100108.80
2017-08-25T00:42:44.239Z,100103.91
2017-08-25T00:45:10.320Z,100106.66
2017-08-25T00:47:36.493Z,100108.19
2017-08-25T00:50:02.600Z,100108.85
2017-08-25T00:52:28.700Z,100109.75
2017-08-25T00:54:54.810Z,100111.31
2017-08-25T00:57:20.898Z,100106.16
2017-08-25T00:59:46.976Z,100113.05
2017-08-25T01:02:13.142Z,100111.01
2017-08-25T01:04:39.286Z,100114.56
2017-08-25T01:07:05.400Z,100110.05
2017-08-25T01:09:31.489Z,100117.36
2017-08-25T01:11:57.578Z,100110.94
2017-08-25T01:14:23.653Z,100113.34
2017-08-25T01:16:49.791Z,100116.41
2017-08-25T01:19:15.892Z,100115.53
2017-08-25T01:21:41.977Z,100118.13
2017-08-25T01:24:08.157Z,100117.53
2017-08-25T01:26:34.256Z,100120.98
2017-08-25T01:29:00.374Z,100116.50
2017-08-25T01:31:26.482Z,100116.34
2017-08-25T01:33:52.557Z,100116.23
2017-08-25T01:36:18.662Z,100117.67
2017-08-25T01:38:44.778Z,100115.28
2017-08-25T01:41:10.940Z,100111.40
2017-08-25T01:43:37.011Z,100110.44
2017-08-25T01:46:03.227Z,100108.17
2017-08-25T01:48:29.308Z,100117.27
2017-08-25T01:50:55.386Z,100106.75
2017-08-25T01:53:21.508Z,100112.81
2017-08-25T01:55:47.590Z,100108.69
2017-08-25T01:58:13.677Z,100110.66
2017-08-25T02:00:39.816Z,100116.33
2017-08-25T02:03:05.921Z,100109.06
2017-08-25T02:05:32.018Z,100107.17
2017-08-25T02:07:58.120Z,100104.09
2017-08-25T02:10:24.198Z,100109.31
2017-08-25T02:12:50.257Z,100105.44
2017-08-25T02:15:16.388Z,100104.93
2017-08-25T02:17:42.462Z,100104.36
2017-08-25T02:20:08.563Z,100104.40
2017-08-25T02:22:34.672Z,100107.16
2017-08-25T02:25:07.834Z,100111.04
2017-08-25T02:27:33.935Z,100108.51
2017-08-25T02:30:00.098Z,100105.16
2017-08-25T02:32:26.202Z,100100.15
2017-08-25T02:34:52.301Z,100107.84
2017-08-25T02:37:18.431Z,100113.41
2017-08-25T02:39:44.556Z,100108.48
2017-08-25T02:42:10.661Z,100105.98
2017-08-25T02:44:36.781Z,100104.81
2017-08-25T02:47:02.882Z,100103.84
2017-08-25T02:49:28.971Z,100111.39
2017-08-25T02:51:55.140Z,100108.41
2017-08-25T02:54:21.245Z,100115.82
2017-08-25T02:56:47.336Z,100110.81
2017-08-25T02:59:13.411Z,100104.47
2017-08-25T03:01:39.500Z,100111.81
2017-08-25T03:04:05.678Z,100114.51
2017-08-25T03:06:31.789Z,100114.07
2017-08-25T03:08:57.913Z,100112.86
2017-08-25T03:11:24.013Z,100115.20
2017-08-25T03:13:50.123Z,100117.89
2017-08-25T03:16:16.247Z,100119.39
2017-08-25T03:18:42.371Z,100119.91
2017-08-25T03:21:08.493Z,100114.70
2017-08-25T03:23:34.599Z,100119.45
2017-08-25T03:26:00.701Z,100126.51
2017-08-25T03:28:26.827Z,100127.44
2017-08-25T03:30:52.980Z,100123.80
2017-08-25T03:33:19.099Z,100129.03
2017-08-25T03:35:45.199Z,100120.69
2017-08-25T03:38:11.266Z,100117.77
2017-08-25T03:40:37.336Z,100123.23
2017-08-25T03:43:03.502Z,100129.45
2017-08-25T03:45:29.595Z,100129.81
2017-08-25T03:47:55.696Z,100121.97
2017-08-25T03:50:21.805Z,100127.27
2017-08-25T03:52:47.935Z,100126.61
2017-08-25T03:55:14.013Z,100121.06
2017-08-25T03:57:40.155Z,100119.05
2017-08-25T04:00:06.275Z,100117.78
2017-08-25T04:02:32.365Z,100122.44
2017-08-25T04:04:58.483Z,100114.14
2017-08-25T04:07:24.662Z,100123.72
2017-08-25T04:09:50.751Z,100122.27
2017-08-25T04:12:16.901Z,100125.77
2017-08-25T04:14:42.969Z,100121.44
2017-08-25T04:17:09.085Z,100125.23
2017-08-25T04:19:35.321Z,100129.42
2017-08-25T04:22:01.403Z,100135.27
2017-08-25T04:24:27.493Z,100133.25
2017-08-25T04:26:53.659Z,100136.05
2017-08-25T04:29:19.775Z,100133.04
2017-08-25T04:31:45.902Z,100138.57
2017-08-25T04:34:12.033Z,100135.41
2017-08-25T04:36:38.115Z,100142.22
2017-08-25T04:39:04.239Z,100139.05
2017-08-25T04:41:30.367Z,100145.16
2017-08-25T04:43:56.479Z,100148.17
2017-08-25T04:46:22.568Z,100147.08
2017-08-25T04:48:48.731Z,100144.88
2017-08-25T04:51:14.872Z,100146.16
2017-08-25T04:53:40.975Z,100155.37
2017-08-25T04:56:07.099Z,100145.02
2017-08-25T04:58:33.257Z,100158.39
2017-08-25T05:01:06.310Z,100151.41
2017-08-25T05:03:32.413Z,100148.73
2017-08-25T05:05:58.540Z,100156.63
2017-08-25T05:08:24.690Z,100153.27
2017-08-25T05:10:50.777Z,100150.70
2017-08-25T05:13:16.849Z,100152.06
2017-08-25T05:15:42.942Z,100150.64
2017-08-25T05:18:09.014Z,100151.05
2017-08-25T05:20:35.100Z,100161.43
2017-08-25T05:23:01.219Z,100166.90
2017-08-25T05:25:27.292Z,100166.48
2017-08-25T05:27:53.385Z,100170.05
2017-08-25T05:30:19.511Z,100165.59
2017-08-25T05:32:45.639Z,100167.89
2017-08-25T05:35:11.807Z,100164.30
2017-08-25T05:37:37.936Z,100162.73
2017-08-25T05:40:04.122Z,100165.50
2017-08-25T05:42:30.205Z,100168.45
2017-08-25T05:44:56.330Z,100165.36
2017-08-25T05:47:22.421Z,100166.64
2017-08-25T05:49:48.481Z,100164.05
2017-08-25T05:52:14.603Z,100173.17
2017-08-25T05:54:40.717Z,100168.29
2017-08-25T05:57:06.809Z,100176.70
2017-08-25T05:59:32.961Z,100177.41
2017-08-25T06:01:59.072Z,100178.69
2017-08-25T06:04:25.167Z,100178.69
2017-08-25T06:06:51.327Z,100189.03
2017-08-25T06:09:17.492Z,100190.21
2017-08-25T06:11:43.592Z,100190.49
2017-08-25T06:14:09.683Z,100192.73
2017-08-25T06:16:35.795Z,100192.08
2017-08-25T06:19:02.176Z,100184.38
2017-08-25T06:21:28.273Z,100187.52
2017-08-25T06:23:54.387Z,100190.64
2017-08-25T06:26:20.535Z,100199.61
2017-08-25T06:28:46.688Z,100198.14
2017-08-25T06:31:12.829Z,100198.77
2017-08-25T06:33:39.014Z,100204.94
2017-08-25T06:36:05.145Z,100197.41
2017-08-25T06:38:31.283Z,100202.78
2017-08-25T06:40:57.413Z,100204.70
2017-08-25T06:43:23.551Z,100206.55
2017-08-25T06:45:49.665Z,100208.53
2017-08-25T06:48:15.775Z,100210.75
2017-08-25T06:50:41.881Z,100210.47
2017-08-25T06:53:08.009Z,100210.39
2017-08-25T06:55:34.071Z,100218.38
2017-08-25T06:58:00.182Z,100215.63
2017-08-25T07:00:26.329Z,100211.52
2017-08-25T07:02:52.410Z,100202.61
2017-08-25T07:05:18.516Z,100207.84
2017-08-25T07:07:44.583Z,100213.11
2017-08-25T07:10:10.701Z,100209.92
2017-08-25T07:12:36.814Z,100211.38
2017-08-25T07:15:02.917Z,100212.70
2017-08-25T07:17:28.993Z,100212.48
2017-08-25T07:19:55.109Z,100211.45
2017-08-25T07:22:21.250Z,100220.61
2017-08-25T07:24:47.441Z,100216.13
2017-08-25T07:27:13.523Z,100222.55
2017-08-25T07:29:39.630Z,100215.50
2017-08-25T07:32:05.746Z,100224.73
2017-08-25T07:34:31.863Z,100224.91
2017-08-25T07:36:57.937Z,100226.72
2017-08-25T07:39:24.053Z,100225.89
2017-08-25T07:41:50.145Z,100237.28
2017-08-25T07:44:16.249Z,100229.11
2017-08-25T07:46:42.353Z,100230.16
2017-08-25T07:49:08.477Z,100230.73
2017-08-25T07:51:34.547Z,100234.70
2017-08-25T07:54:00.632Z,100233.14
2017-08-25T07:56:26.787Z,100228.72
2017-08-25T07:58:52.836Z,100235.49
2017-08-25T08:01:19.074Z,100237.52
2017-08-25T08:03:45.165Z,100236.32
2017-08-25T08:06:11.254Z,100241.69
2017-08-25T08:08:38.235Z,100238.33
2017-08-25T08:11:04.320Z,100232.66
2017-08-25T08:13:30.416Z,100235.28
2017-08-25T08:15:56.521Z,100241.17
2017-08-25T08:18:22.607Z,100240.31
2017-08-25T08:20:48.724Z,100233.01
2017-08-25T08:23:14.846Z,100237.80
2017-08-25T08:25:41.012Z,100233.86
2017-08-25T08:28:07.124Z,100230.45
2017-08-25T08:30:33.214Z,100234.66
2017-08-25T08:32:59.294Z,100233.62
2017-08-25T08:35:25.470Z,100241.43
2017-08-25T08:37:51.545Z,100232.23
2017-08-25T08:40:17.622Z,100232.22
2017-08-25T08:42:43.779Z,100236.55
2017-08-25T08:45:09.877Z,100240.91
2017-08-25T08:47:35.960Z,100235.80
2017-08-25T08:50:02.092Z,100233.84
2017-08-25T08:52:28.177Z,100228.11
2017-08-25T08:54:54.326Z,100234.59
2017-08-25T08:57:20.431Z,100234.70
2017-08-25T08:59:46.507Z,100227.00
2017-08-25T09:02:12.613Z,100224.92
2017-08-25T09:04:38.717Z,100232.23
2017-08-25T09:07:04.810Z,100228.05
2017-08-25T09:09:30.947Z,100222.37
2017-08-25T09:11:57.051Z,100216.98
2017-08-25T09:14:23.145Z,100219.69
2017-08-25T09:16:49.251Z,100207.19
2017-08-25T09:19:15.360Z,100211.43
2017-08-25T09:21:41.485Z,100214.31
2017-08-25T09:24:07.642Z,100210.69
2017-08-25T09:26:33.741Z,100212.95
2017-08-25T09:28:59.806Z,100213.64
2017-08-25T09:31:25.951Z,100216.71
2017-08-25T09:33:52.034Z,100215.20
2017-08-25T09:36:18.136Z,100214.66
2017-08-25T09:38:44.227Z,100215.80
2017-08-25T09:41:10.348Z,100220.17
2017-08-25T09:43:36.448Z,100216.20
2017-08-25T09:46:02.535Z,100222.71
2017-08-25T09:48:28.648Z,100221.66
2017-08-25T09:50:54.824Z,100231.41
2017-08-25T09:53:20.926Z,100225.24
2017-08-25T09:55:47.044Z,100220.81
2017-08-25T09:58:13.194Z,100227.39
2017-08-25T10:00:39.282Z,100224.59
2017-08-25T10:03:05.384Z,100231.05
2017-08-25T10:05:31.534Z,100224.75
2017-08-25T10:07:57.663Z,100223.39
2017-08-25T10:10:23.746Z,100223.95
2017-08-25T10:12:49.860Z,100226.23
2017-08-25T10:15:15.956Z,100219.95
2017-08-25T10:17:42.066Z,100216.89
2017-08-25T10:20:08.236Z,100215.61
2017-08-25T10:22:34.316Z,100216.02
2017-08-25T10:25:00.440Z,100220.78
2017-08-25T10:27:26.546Z,100218.30
2017-08-25T10:29:52.700Z,100220.94
2017-08-25T10:32:18.822Z,100219.03
2017-08-25T10:35:03.607Z,100210.80
2017-08-25T10:37:48.338Z,100223.36
2017-08-25T10:43:54.207Z,100208.86
2017-08-25T10:46:20.313Z,100211.56
2017-08-25T10:48:46.411Z,100204.15
2017-08-25T10:51:12.543Z,100213.76
2017-08-25T10:53:38.676Z,100214.44
2017-08-25T10:56:04.773Z,100208.27
2017-08-25T10:58:30.867Z,100204.94
2017-08-25T11:00:56.973Z,100210.05
2017-08-25T11:03:23.106Z,100208.67
2017-08-25T11:05:49.268Z,100196.52
2017-08-25T11:08:18.563Z,100198.64
2017-08-25T11:10:44.693Z,100200.38
2017-08-25T11:13:10.843Z,100194.95
2017-08-25T11:15:36.958Z,100199.46
2017-08-25T11:18:03.075Z,100183.55
2017-08-25T11:20:29.261Z,100182.14
2017-08-25T11:22:55.385Z,100186.60
2017-08-25T11:25:21.678Z,100188.33
2017-08-25T11:27:48.666Z,100187.92
2017-08-25T11:30:14.753Z,100180.61
2017-08-25T11:32:40.943Z,100188.69
2017-08-25T11:35:07.055Z,100181.96
2017-08-25T11:37:33.171Z,100178.09
2017-08-25T11:39:59.255Z,100178.78
2017-08-25T11:42:25.382Z,100183.52
2017-08-25T11:44:51.502Z,100176.58
2017-08-25T11:47:17.709Z,100176.67
2017-08-25T11:49:43.822Z,100182.52
2017-08-25T11:52:09.936Z,100172.66
2017-08-25T11:54:36.048Z,100179.21
2017-08-25T11:57:02.165Z,100180.94
2017-08-25T11:59:28.224Z,100185.56
2017-08-25T12:01:54.367Z,100182.45
2017-08-25T12:04:20.476Z,100182.05
2017-08-25T12:06:46.583Z,100179.50
2017-08-25T12:09:12.660Z,100177.36
2017-08-25T12:11:39.513Z,100183.56
2017-08-25T12:14:05.702Z,100182.66
2017-08-25T12:16:31.886Z,100184.57
2017-08-25T12:18:58.012Z,100171.95
2017-08-25T12:21:24.093Z,100178.34
2017-08-25T12:23:50.316Z,100173.86
2017-08-25T12:26:16.448Z,100177.42
2017-08-25T12:28:42.534Z,100172.39
2017-08-25T12:31:08.641Z,100173.29
2017-08-25T12:33:35.788Z,100174.80
2017-08-25T12:36:01.997Z,100167.31
2017-08-25T12:38:28.248Z,100168.09
2017-08-25T12:40:54.509Z,100169.70
2017-08-25T12:43:20.664Z,100166.62
2017-08-25T12:45:46.903Z,100168.70
2017-08-25T12:48:13.134Z,100166.71
2017-08-25T12:50:39.349Z,100163.05
2017-08-25T12:53:05.510Z,100166.07
2017-08-25T12:55:31.674Z,100165.27
2017-08-25T12:57:57.900Z,100159.36
2017-08-25T13:00:24.072Z,100169.89
2017-08-25T13:02:50.210Z,100167.79
2017-08-25T13:05:16.282Z,100156.55
2017-08-25T13:07:42.406Z,100162.00
2017-08-25T13:10:08.502Z,100163.06
2017-08-25T13:12:34.629Z,100161.80
2017-08-25T13:15:00.722Z,100166.88
2017-08-25T13:17:26.842Z,100171.12
2017-08-25T13:19:52.942Z,100163.45
2017-08-25T13:22:19.206Z,100166.84
2017-08-25T13:24:45.294Z,100159.48
2017-08-25T13:27:11.442Z,100160.82
2017-08-25T13:29:37.550Z,100160.11
2017-08-25T13:32:03.632Z,100162.75
2017-08-25T13:34:29.718Z,100159.59
2017-08-25T13:36:56.350Z,100157.22
2017-08-25T13:39:22.405Z,100151.95
2017-08-25T13:41:48.518Z,100166.11
2017-08-25T13:44:14.673Z,100152.34
2017-08-25T13:46:40.773Z,100148.52
2017-08-25T13:49:06.860Z,100160.80
2017-08-25T13:51:32.938Z,100155.41
2017-08-25T13:53:59.041Z,100145.72
2017-08-25T13:56:25.179Z,100147.80
2017-08-25T13:58:51.276Z,100152.91
2017-08-25T14:01:17.374Z,100147.65
2017-08-25T14:03:43.524Z,100143.25
2017-08-25T14:06:09.597Z,100141.67
2017-08-25T14:08:35.722Z,100137.72
2017-08-25T14:11:01.808Z,100129.75
2017-08-25T14:13:27.908Z,100136.61
2017-08-25T14:15:54.061Z,100138.83
2017-08-25T14:18:20.174Z,100135.56
2017-08-25T14:20:46.539Z,100132.58
2017-08-25T14:23:12.632Z,100124.11
2017-08-25T14:25:38.744Z,100139.78
2017-08-25T14:28:04.816Z,100129.81
2017-08-25T14:30:30.890Z,100131.63
2017-08-25T14:32:57.230Z,100119.64
2017-08-25T14:35:23.355Z,100124.41
2017-08-25T14:37:49.448Z,100119.81
2017-08-25T14:40:15.540Z,100122.39
2017-08-25T14:42:41.679Z,100121.66
2017-08-25T14:45:07.801Z,100125.15
2017-08-25T14:47:33.907Z,100123.98
2017-08-25T14:50:00.008Z,100124.88
2017-08-25T14:52:26.131Z,100122.69
2017-08-25T14:54:52.294Z,100125.62
2017-08-25T14:57:18.411Z,100122.30
2017-08-25T14:59:44.541Z,100118.85
2017-08-25T15:02:10.705Z,100117.71
2017-08-25T15:04:37.758Z,100116.08
2017-08-25T15:07:03.878Z,100118.34
2017-08-25T15:09:30.038Z,100111.89
2017-08-25T15:11:56.185Z,100109.59
2017-08-25T15:14:22.319Z,100113.19
2017-08-25T15:16:48.443Z,100107.23
2017-08-25T15:19:14.558Z,100114.17
2017-08-25T15:21:40.672Z,100110.91
2017-08-25T15:24:06.829Z,100110.48
2017-08-25T15:26:32.941Z,100110.25
2017-08-25T15:28:59.101Z,100107.84
2017-08-25T15:31:25.210Z,100104.89
2017-08-25T15:33:51.353Z,100099.95
2017-08-25T15:36:17.458Z,100106.13
2017-08-25T15:38:43.579Z,100100.73
2017-08-25T15:41:09.639Z,100093.09
2017-08-25T15:43:35.732Z,100097.41
2017-08-25T15:46:01.806Z,100099.81
2017-08-25T15:48:27.928Z,100099.50
2017-08-25T15:50:54.116Z,100094.19
2017-08-25T15:53:20.203Z,100090.98
2017-08-25T15:55:46.325Z,100098.12
2017-08-25T15:58:12.417Z,100093.75
2017-08-25T16:00:38.559Z,100098.81
2017-08-25T16:03:04.673Z,100095.09
2017-08-25T16:05:30.772Z,100092.52
2017-08-25T16:07:56.865Z,100094.50
2017-08-25T16:10:23.011Z,100098.19
2017-08-25T16:12:49.078Z,100093.56
2017-08-25T16:15:15.187Z,100093.28
2017-08-25T16:17:41.258Z,100090.17
2017-08-25T16:20:07.363Z,100086.37
2017-08-25T16:22:33.525Z,100080.48
2017-08-25T16:24:59.606Z,100074.96
2017-08-25T16:27:25.797Z,100072.34
2017-08-25T16:29:51.868Z,100071.45
2017-08-25T16:32:17.971Z,100070.00
2017-08-25T16:34:44.088Z,100071.20
2017-08-25T16:37:10.143Z,100073.77
2017-08-25T16:39:36.257Z,100072.22
2017-08-25T16:42:02.396Z,100073.23
2017-08-25T16:44:28.504Z,100072.27
2017-08-25T16:46:54.630Z,100071.44
2017-08-25T16:49:20.746Z,100069.94
2017-08-25T16:51:46.846Z,100069.47
2017-08-25T16:54:12.934Z,100067.77
2017-08-25T16:56:39.032Z,100068.21
2017-08-25T16:59:05.150Z,100071.13
2017-08-25T17:01:31.226Z,100070.14
2017-08-25T17:03:57.527Z,100069.78
2017-08-25T17:06:23.647Z,100070.85
2017-08-25T17:08:49.770Z,100072.60
2017-08-25T17:11:16.114Z,100067.17
2017-08-25T17:13:42.219Z,100069.67
2017-08-25T17:16:08.302Z,100072.84
2017-08-25T17:18:34.399Z,100077.22
2017-08-25T17:21:00.520Z,100069.09
2017-08-25T17:23:26.594Z,100067.72
2017-08-25T17:25:52.696Z,100073.17
2017-08-25T17:28:18.799Z,100078.09
2017-08-25T17:30:44.922Z,100076.62
2017-08-25T17:33:11.046Z,100077.69
2017-08-25T17:35:37.145Z,100073.08
2017-08-25T17:38:03.282Z,100081.67
2017-08-25T17:40:29.399Z,100081.47
2017-08-25T17:42:55.482Z,100081.17
2017-08-25T17:45:21.552Z,100087.67
2017-08-25T17:47:47.706Z,100091.28
2017-08-25T17:50:13.842Z,100095.45
2017-08-25T17:52:39.914Z,100090.49
2017-08-25T17:55:06.284Z,100087.55
2017-08-25T17:57:32.364Z,100096.08
2017-08-25T17:59:58.433Z,100094.58
2017-08-25T18:02:24.695Z,100097.28
2017-08-25T18:04:50.796Z,100093.16
2017-08-25T18:07:16.946Z,100098.23
2017-08-25T18:09:43.088Z,100099.02
2017-08-25T18:12:09.219Z,100106.19
2017-08-25T18:14:35.311Z,100103.52
2017-08-25T18:17:01.420Z,100104.95
2017-08-25T18:19:27.498Z,100102.42
2017-08-25T18:21:53.601Z,100107.11
2017-08-25T18:24:19.802Z,100105.64
2017-08-25T18:26:45.952Z,100105.53
2017-08-25T18:29:12.077Z,100105.28
2017-08-25T18:31:38.161Z,100103.16
2017-08-25T18:34:04.257Z,100106.59
2017-08-25T18:36:30.367Z,100108.99
2017-08-25T18:38:56.483Z,100108.52
2017-08-25T18:41:22.582Z,100102.99
2017-08-25T18:43:48.700Z,100110.14
2017-08-25T18:46:14.795Z,100104.47
2017-08-25T18:48:40.875Z,100109.61
2017-08-25T18:51:06.985Z,100112.77
2017-08-25T18:53:33.055Z,100115.25
2017-08-25T18:55:59.133Z,100122.11
2017-08-25T18:58:25.248Z,100124.28
2017-08-25T19:00:51.343Z,100115.68
2017-08-25T19:03:17.598Z,100122.28
2017-08-25T19:05:43.719Z,100122.48
2017-08-25T19:08:09.855Z,100122.19
2017-08-25T19:10:36.181Z,100128.41
2017-08-25T19:13:02.238Z,100128.64
2017-08-25T19:15:28.317Z,100136.19
2017-08-25T19:17:54.426Z,100136.20
2017-08-25T19:20:20.505Z,100132.33
2017-08-25T19:22:46.575Z,100128.23
2017-08-25T19:25:12.674Z,100123.20
2017-08-25T19:27:38.748Z,100107.30
2017-08-25T19:30:04.832Z,100105.55
2017-08-25T19:32:30.954Z,100105.03
2017-08-25T19:34:57.055Z,100114.63
2017-08-25T19:37:23.170Z,100111.95
2017-08-25T19:39:49.301Z,100117.81
2017-08-25T19:42:15.404Z,100118.21
2017-08-25T19:44:41.518Z,100119.55
2017-08-25T19:47:07.599Z,100131.85
2017-08-25T19:49:33.691Z,100116.02
2017-08-25T19:51:59.794Z,100120.91
2017-08-25T19:54:25.920Z,100117.50
2017-08-25T19:56:52.021Z,100110.94
2017-08-25T19:59:18.141Z,100119.78
2017-08-25T20:01:44.279Z,100113.75
2017-08-25T20:04:10.389Z,100116.36
2017-08-25T20:06:36.479Z,100115.72
2017-08-25T20:09:02.607Z,100124.07
2017-08-25T20:11:28.725Z,100120.41
2017-08-25T20:13:54.790Z,100117.61
2017-08-25T20:16:20.845Z,100123.22
2017-08-25T20:18:46.981Z,100126.67
2017-08-25T20:21:13.056Z,100126.35
2017-08-25T20:23:39.164Z,100125.22
2017-08-25T20:26:05.847Z,100121.34
2017-08-25T20:28:31.904Z,100117.61
2017-08-25T20:30:57.995Z,100120.61
2017-08-25T20:33:26.097Z,100118.03
2017-08-25T20:35:52.187Z,100111.66
2017-08-25T20:38:18.290Z,100117.41
2017-08-25T20:40:44.399Z,100117.41
2017-08-25T20:43:10.529Z,100115.50
2017-08-25T20:45:36.586Z,100114.02
2017-08-25T20:48:02.684Z,100113.38
2017-08-25T20:50:28.765Z,100126.80
2017-08-25T20:52:54.855Z,100130.30
2017-08-25T20:55:20.921Z,100141.11
2017-08-25T20:57:47.022Z,100145.08
2017-08-25T21:00:13.194Z,100144.13
2017-08-25T21:02:39.437Z,100147.68
2017-08-25T21:05:05.567Z,100146.50
2017-08-25T21:07:31.695Z,100143.89
2017-08-25T21:09:57.814Z,100144.50
2017-08-25T21:12:24.075Z,100142.86
2017-08-25T21:14:50.250Z,100138.90
2017-08-25T21:17:16.327Z,100139.73
2017-08-25T21:19:42.404Z,100137.45
2017-08-25T21:22:08.475Z,100135.80
2017-08-25T21:24:34.549Z,100132.48
2017-08-25T21:27:00.638Z,100134.67
2017-08-25T21:29:26.742Z,100145.35
2017-08-25T21:31:52.839Z,100146.36
2017-08-25T21:34:18.946Z,100143.14
2017-08-25T21:36:45.008Z,100149.38
2017-08-25T21:39:11.106Z,100139.92
2017-08-25T21:41:37.227Z,100138.90
2017-08-25T21:44:03.309Z,100145.48
2017-08-25T21:46:29.417Z,100140.36
2017-08-25T21:48:56.352Z,100137.56
2017-08-25T21:51:22.480Z,100141.11
2017-08-25T21:53:48.570Z,100141.21
2017-08-25T21:56:14.668Z,100139.15
2017-08-25T21:58:40.756Z,100139.25
2017-08-25T22:01:06.920Z,100139.56
2017-08-25T22:03:33.065Z,100146.43
2017-08-25T22:05:59.272Z,100144.42
2017-08-25T22:08:25.460Z,100141.94
2017-08-25T22:10:51.574Z,100138.81
2017-08-25T22:13:17.648Z,100145.77
2017-08-25T22:15:43.758Z,100142.55
2017-08-25T22:18:09.853Z,100143.05
2017-08-25T22:20:35.953Z,100140.44
2017-08-25T22:23:02.078Z,100136.61
2017-08-25T22:25:28.186Z,100129.20
2017-08-25T22:27:54.251Z,100133.25
2017-08-25T22:30:20.378Z,100133.23
2017-08-25T22:32:46.476Z,100133.83
2017-08-25T22:35:12.545Z,100130.20
2017-08-25T22:37:38.718Z,100124.17
2017-08-25T22:40:04.799Z,100121.67
2017-08-25T22:42:30.965Z,100117.19
2017-08-25T22:44:57.073Z,100117.02
2017-08-25T22:47:23.142Z,100120.74
2017-08-25T22:49:49.242Z,100125.03
2017-08-25T22:52:15.343Z,100118.27
2017-08-25T22:54:41.435Z,100114.31
2017-08-25T22:57:07.513Z,100113.69
2017-08-25T22:59:33.604Z,100115.14
2017-08-25T23:01:59.712Z,100115.33
2017-08-25T23:04:25.841Z,100122.17
2017-08-25T23:06:51.916Z,100118.84
2017-08-25T23:09:18.064Z,100118.86
2017-08-25T23:11:44.175Z,100116.39
2017-08-25T23:14:10.302Z,100115.66
2017-08-25T23:16:36.420Z,100118.97
2017-08-25T23:19:02.513Z,100115.75
2017-08-25T23:21:28.600Z,100112.63
2017-08-25T23:23:54.707Z,100111.41
2017-08-25T23:26:20.800Z,100115.24
2017-08-25T23:28:46.902Z,100117.84
2017-08-25T23:31:13.017Z,100126.48
2017-08-25T23:33:39.077Z,100142.00
2017-08-25T23:36:05.140Z,100157.26
2017-08-25T23:38:31.226Z,100155.45
2017-08-25T23:40:57.303Z,100155.63
2017-08-25T23:43:23.429Z,100156.95
2017-08-25T23:45:49.694Z,100152.69
2017-08-25T23:48:15.776Z,100159.34
2017-08-25T23:50:41.833Z,100150.28
2017-08-25T23:53:07.928Z,100142.08
2017-08-25T23:55:33.987Z,100129.52
2017-08-25T23:58:00.080Z,100122.33
